Time;durP1;ratioP1;P1;durP2;ratioP2;P2;SDS_P1;SDS_P2;PMS_P1;PMS_P2;Temp;Humidity;BMP_temperature;BMP_pressure;BME280_temperature;BME280_humidity;BME280_pressure;Samples;Min_cycle;Max_cycle;Signal;HPM_P1;HPM_P2
2022/04/11 00:01:22;;;;;;;1.80;0.75;;;;;;;6.40;48.62;100114.59;4982473;28;20422;-43
2022/04/11 00:03:49;;;;;;;3.25;1.15;;;;;;;6.43;47.07;100112.06;4969438;28;20062;-44
2022/04/11 00:06:16;;;;;;;4.55;1.30;;;;;;;6.46;47.01;100115.53;4962934;28;20062;-42
2022/04/11 00:08:42;;;;;;;3.75;1.15;;;;;;;6.45;48.23;100112.09;4980344;28;21666;-44
2022/04/11 00:11:09;;;;;;;3.83;0.90;;;;;;;6.40;46.80;100112.03;4977086;28;20054;-42
2022/04/11 00:13:36;;;;;;;2.45;1.10;;;;;;;6.39;47.09;100112.84;4979843;28;20143;-43
2022/04/11 00:16:03;;;;;;;3.40;1.05;;;;;;;6.38;48.41;100112.84;4985594;28;20613;-45
2022/04/11 00:18:30;;;;;;;4.95;1.20;;;;;;;6.37;47.39;100111.09;4977852;28;20425;-41
2022/04/11 00:20:57;;;;;;;3.67;1.17;;;;;;;6.32;48.20;100103.34;4977721;28;20100;-41
2022/04/11 00:23:24;;;;;;;5.28;1.45;;;;;;;6.27;47.51;100100.69;4980592;28;20058;-42
2022/04/11 00:25:50;;;;;;;2.25;1.25;;;;;;;6.23;48.35;100104.06;4975776;28;20062;-47
2022/04/11 00:28:17;;;;;;;4.82;0.70;;;;;;;6.14;48.77;100106.44;4975103;28;20054;-42
2022/04/11 00:30:44;;;;;;;4.10;1.27;;;;;;;6.07;48.54;100108.06;4977507;28;20399;-42
2022/04/11 00:33:10;;;;;;;6.15;1.25;;;;;;;6.05;49.34;100104.63;4977010;28;20058;-41
2022/04/11 00:35:37;;;;;;;1.90;0.93;;;;;;;5.99;49.29;100104.47;4974428;28;20081;-42
2022/04/11 00:38:04;;;;;;;2.50;1.35;;;;;;;5.99;49.23;100104.47;4973791;28;20049;-42
2022/04/11 00:40:30;;;;;;;3.50;1.15;;;;;;;5.91;48.72;100101.75;4976205;28;20050;-43
2022/04/11 00:42:58;;;;;;;3.92;1.27;;;;;;;5.88;48.59;100102.56;4974224;28;20156;-43
2022/04/11 00:45:25;;;;;;;2.08;1.20;;;;;;;5.85;48.69;100092.25;4979349;28;20556;-44
2022/04/11 00:47:52;;;;;;;2.47;1.13;;;;;;;5.82;49.34;100089.63;4976074;28;21257;-45
2022/04/11 00:50:18;;;;;;;2.40;1.00;;;;;;;5.79;48.99;100092.16;4982208;28;20046;-42
2022/04/11 00:52:49;;;;;;;3.42;0.90;;;;;;;5.77;49.21;100083.53;4976770;28;20367;-44
2022/04/11 00:55:19;;;;;;;3.42;0.98;;;;;;;5.73;48.78;100087.75;4975056;28;20050;-42
2022/04/11 00:57:46;;;;;;;;;;;;;;;5.57;49.23;100081.47;4978195;28;20054;-42
2022/04/11 01:00:14;;;;;;;4.07;1.27;;;;;;;5.57;49.39;100081.47;4978549;28;21817;-45
2022/04/11 01:02:41;;;;;;;3.95;1.33;;;;;;;5.46;49.02;100080.41;4978891;28;20099;-43
2022/04/11 01:05:10;;;;;;;3.00;1.15;;;;;;;5.45;49.67;100076.09;4981114;28;20182;-42
2022/04/11 01:07:37;;;;;;;3.40;1.20;;;;;;;5.42;49.80;100081.19;4978169;28;20050;-43
2022/04/11 01:10:04;;;;;;;4.00;1.17;;;;;;;5.37;49.00;100071.69;4981547;28;20143;-40
2022/04/11 01:12:32;;;;;;;3.67;1.38;;;;;;;5.37;50.03;100073.41;4982454;28;20490;-42
2022/04/11 01:14:59;;;;;;;3.00;1.30;;;;;;;5.35;49.60;100065.66;4993742;28;20394;-41
2022/04/11 01:20:12;;;;;;;5.82;2.00;;;;;;;5.31;49.49;100063.00;5002636;27;20420;-41
2022/04/11 01:22:39;;;;;;;2.58;1.15;;;;;;;5.30;49.56;100061.28;4998445;28;20100;-40
2022/04/11 01:25:07;;;;;;;2.65;1.23;;;;;;;5.28;49.66;100058.69;4995017;28;20690;-44
2022/04/11 01:27:34;;;;;;;2.72;1.10;;;;;;;5.24;50.14;100051.75;4999342;28;20169;-45
2022/04/11 01:30:01;;;;;;;2.85;1.23;;;;;;;5.24;50.23;100052.59;4992553;28;20683;-40
2022/04/11 01:32:28;;;;;;;1.13;0.70;;;;;;;5.21;49.87;100056.81;4993162;28;20057;-42
2022/04/11 01:34:56;;;;;;;3.80;1.73;;;;;;;5.18;49.84;100044.81;4994373;28;20124;-43
2022/04/11 01:37:24;;;;;;;2.88;1.42;;;;;;;5.14;50.19;100041.28;5021219;28;20055;-41
2022/04/11 01:39:50;;;;;;;8.32;1.73;;;;;;;5.11;50.74;100043.81;4974124;28;20466;-41
2022/04/11 01:42:17;;;;;;;2.38;1.45;;;;;;;5.07;50.14;100042.00;4978284;28;20640;-42
2022/04/11 01:44:44;;;;;;;3.90;1.58;;;;;;;5.07;50.54;100044.56;4981382;28;20065;-45
2022/04/11 01:47:10;;;;;;;4.88;1.40;;;;;;;5.05;50.54;100046.25;4987159;28;20116;-42
2022/04/11 01:49:37;;;;;;;4.10;1.20;;;;;;;5.05;50.05;100042.81;4981766;28;20051;-43
2022/04/11 01:52:04;;;;;;;3.15;1.85;;;;;;;5.02;51.22;100046.19;4991211;28;20457;-43
2022/04/11 01:54:31;;;;;;;3.17;1.58;;;;;;;5.02;50.62;100041.06;4980783;28;21762;-42
2022/04/11 01:56:57;;;;;;;3.97;1.45;;;;;;;4.99;50.90;100035.84;5011270;28;20055;-42
2022/04/11 01:59:24;;;;;;;3.42;1.05;;;;;;;4.98;50.97;100031.56;4979636;28;20046;-43
2022/04/11 02:01:51;;;;;;;3.55;1.48;;;;;;;4.96;51.13;100040.97;4988638;28;20046;-40
2022/04/11 02:04:18;;;;;;;3.92;1.30;;;;;;;4.92;51.72;100034.00;4994661;28;20038;-43
2022/04/11 02:06:45;;;;;;;5.43;2.28;;;;;;;4.88;51.44;100028.81;4994625;28;20050;-40
2022/04/11 02:09:12;;;;;;;3.17;1.63;;;;;;;4.86;52.12;100030.47;4995553;28;20042;-42
2022/04/11 02:11:38;;;;;;;3.85;1.50;;;;;;;4.79;52.90;100026.06;4994543;28;20053;-41
2022/04/11 02:14:05;;;;;;;3.38;1.85;;;;;;;4.75;52.85;100022.56;4999002;28;20051;-41
2022/04/11 02:16:32;;;;;;;3.78;1.33;;;;;;;4.70;53.36;100023.31;4998432;28;20065;-41
2022/04/11 02:18:58;;;;;;;6.13;1.63;;;;;;;4.69;53.54;100019.03;5000041;28;20133;-44
2022/04/11 02:21:25;;;;;;;4.38;1.38;;;;;;;4.61;53.54;100021.41;4997645;28;20057;-41
2022/04/11 02:23:52;;;;;;;2.90;1.50;;;;;;;4.59;53.50;100018.81;4991892;28;20050;-43
2022/04/11 02:26:18;;;;;;;3.80;1.73;;;;;;;4.58;53.52;100013.63;4997742;28;20042;-41
2022/04/11 02:28:45;;;;;;;5.32;1.95;;;;;;;4.54;53.58;100007.59;4994999;28;20053;-43
2022/04/11 02:31:11;;;;;;;4.55;1.35;;;;;;;4.48;54.99;100012.59;4983618;28;20069;-42
2022/04/11 02:33:38;;;;;;;3.95;1.35;;;;;;;4.43;54.95;99998.81;4978959;28;20089;-41
2022/04/11 02:36:05;;;;;;;3.42;1.52;;;;;;;4.35;55.78;99991.81;4981588;28;20124;-42
2022/04/11 02:38:33;;;;;;;2.83;1.75;;;;;;;4.31;56.26;99990.00;4980936;28;20049;-43
2022/04/11 02:40:59;;;;;;;5.70;1.90;;;;;;;4.25;56.36;99987.28;4982905;28;20502;-43
2022/04/11 02:43:26;;;;;;;3.38;1.73;;;;;;;4.22;56.85;99984.69;4980057;28;20038;-40
2022/04/11 02:45:53;;;;;;;6.47;1.88;;;;;;;4.17;56.38;99974.31;4988532;28;20522;-42
2022/04/11 02:48:20;;;;;;;5.65;1.33;;;;;;;4.11;57.50;99979.31;4985640;28;20047;-41
2022/04/11 02:50:46;;;;;;;4.18;1.63;;;;;;;4.07;57.63;99970.69;4981032;28;20058;-44
2022/04/11 02:53:13;;;;;;;5.15;2.20;;;;;;;4.05;57.80;99962.09;4977792;28;20050;-44
2022/04/11 02:55:39;;;;;;;6.15;2.72;;;;;;;4.00;58.21;99963.69;4986144;28;20050;-42
2022/04/11 02:58:06;;;;;;;7.68;2.28;;;;;;;3.94;57.80;99959.28;4981228;28;20058;-42
2022/04/11 03:00:33;;;;;;;5.05;1.67;;;;;;;3.92;58.16;99965.22;4979625;28;20042;-40
2022/04/11 03:02:59;;;;;;;5.38;1.90;;;;;;;3.84;58.56;99963.34;4984681;28;20065;-44
2022/04/11 03:05:26;;;;;;;4.60;2.28;;;;;;;3.83;59.88;99966.72;4980980;28;20058;-41
2022/04/11 03:07:52;;;;;;;4.95;1.40;;;;;;;3.79;59.60;99964.94;4980078;28;20136;-41
2022/04/11 03:10:19;;;;;;;4.05;2.22;;;;;;;3.77;59.54;99963.13;4980427;28;20101;-40
2022/04/11 03:12:46;;;;;;;4.35;2.17;;;;;;;3.73;59.36;99959.66;4980495;28;20108;-41
2022/04/11 03:15:12;;;;;;;5.07;2.13;;;;;;;3.70;60.52;99959.56;4984839;28;20050;-40
2022/04/11 03:17:39;;;;;;;6.15;2.20;;;;;;;3.70;60.10;99957.88;4984899;28;20055;-40
2022/04/11 03:20:06;;;;;;;3.97;2.05;;;;;;;3.72;59.95;99963.06;4983407;28;20046;-43
2022/04/11 03:22:33;;;;;;;5.05;2.33;;;;;;;3.68;60.28;99958.69;4981603;28;20066;-41
2022/04/11 03:24:59;;;;;;;6.63;2.65;;;;;;;3.70;59.12;99957.00;4981495;28;20050;-41
2022/04/11 03:27:26;;;;;;;6.35;1.95;;;;;;;3.71;59.14;99966.41;4981988;28;20475;-41
2022/04/11 03:29:52;;;;;;;4.85;1.88;;;;;;;3.72;58.89;99961.34;4981420;28;20061;-44
2022/04/11 03:32:19;;;;;;;9.55;2.30;;;;;;;3.76;58.42;99959.72;4985211;28;20046;-45
2022/04/11 03:34:46;;;;;;;6.07;2.17;;;;;;;3.74;59.41;99961.38;4978984;28;20053;-40
2022/04/11 03:37:12;;;;;;;8.65;2.58;;;;;;;3.76;59.08;99952.03;4980616;28;20101;-41
2022/04/11 03:39:39;;;;;;;5.45;2.50;;;;;;;3.76;58.85;99949.47;4978590;28;20105;-40
2022/04/11 03:42:06;;;;;;;6.82;2.42;;;;;;;3.75;59.82;99942.59;4980326;28;20054;-39
2022/04/11 03:44:35;;;;;;;9.50;2.42;;;;;;;3.77;60.37;99950.31;4979951;28;20109;-41
2022/04/11 03:47:03;;;;;;;9.95;2.70;;;;;;;3.75;59.86;99950.28;4985397;28;20108;-40
2022/04/11 03:49:29;;;;;;;8.65;2.50;;;;;;;3.78;59.04;99947.81;4977723;28;20117;-43
2022/04/11 03:51:56;;;;;;;9.50;2.83;;;;;;;3.75;60.51;99947.72;4986235;28;20046;-43
2022/04/11 03:54:23;;;;;;;10.25;2.75;;;;;;;3.76;59.27;99948.59;4984771;28;20091;-40
2022/04/11 03:56:50;;;;;;;7.82;2.95;;;;;;;3.75;59.65;99942.59;4982494;28;20101;-43
2022/04/11 03:59:16;;;;;;;7.78;3.05;;;;;;;3.76;60.19;99928.09;4978523;28;20506;-43
2022/04/11 04:01:43;;;;;;;7.68;3.22;;;;;;;3.71;60.45;99941.69;4984664;28;20133;-41
2022/04/11 04:04:10;;;;;;;9.82;2.85;;;;;;;3.72;60.59;99927.19;4977525;28;20049;-41
2022/04/11 04:06:36;;;;;;;6.63;3.17;;;;;;;3.69;59.81;99927.09;4982994;28;20104;-40
2022/04/11 04:09:03;;;;;;;6.90;3.40;;;;;;;3.70;60.08;99922.03;4980226;28;20042;-41
2022/04/11 04:11:30;;;;;;;8.07;3.00;;;;;;;3.69;60.02;99916.84;4983446;28;20042;-41
2022/04/11 04:13:56;;;;;;;10.10;4.03;;;;;;;3.66;61.26;99914.22;4981577;28;20407;-40
2022/04/11 04:16:23;;;;;;;10.63;3.58;;;;;;;3.60;61.70;99920.94;4980377;28;20702;-43
2022/04/11 04:18:50;;;;;;;8.25;3.65;;;;;;;3.59;61.71;99920.91;4982612;28;20048;-40
2022/04/11 04:21:18;;;;;;;10.95;3.20;;;;;;;3.54;61.71;99915.66;4978044;28;20506;-40
2022/04/11 04:23:45;;;;;;;10.68;3.33;;;;;;;3.52;60.71;99909.66;4981046;28;20050;-40
2022/04/11 04:26:12;;;;;;;9.85;3.60;;;;;;;3.50;62.10;99911.31;4985092;28;20046;-43
2022/04/11 04:28:39;;;;;;;10.27;3.72;;;;;;;3.48;62.39;99907.84;4981718;28;20046;-42
2022/04/11 04:31:05;;;;;;;7.60;3.33;;;;;;;3.46;62.18;99904.38;4982757;28;20459;-40
2022/04/11 04:33:32;;;;;;;11.00;3.35;;;;;;;3.43;61.63;99894.06;4981980;28;20054;-41
2022/04/11 04:36:04;;;;;;;8.80;3.88;;;;;;;3.40;62.31;99896.53;4983134;28;20062;-41
2022/04/11 04:38:31;;;;;;;11.32;4.15;;;;;;;3.34;63.55;99895.56;4983372;28;20046;-44
2022/04/11 04:40:58;;;;;;;13.20;4.68;;;;;;;3.29;63.35;99897.16;4981899;28;20042;-43
2022/04/11 04:43:25;;;;;;;11.43;4.70;;;;;;;3.21;63.83;99896.94;4979145;28;20069;-40
2022/04/11 04:45:52;;;;;;;7.65;4.25;;;;;;;3.14;63.74;99896.78;4977474;28;20046;-39
2022/04/11 04:48:18;;;;;;;9.98;3.85;;;;;;;3.06;63.80;99900.00;4977425;28;20046;-41
2022/04/11 04:50:45;;;;;;;13.32;5.20;;;;;;;3.07;63.79;99900.84;4979676;28;20110;-40
2022/04/11 04:53:12;;;;;;;10.70;4.38;;;;;;;3.04;64.55;99900.81;4986726;28;20054;-41
2022/04/11 04:55:56;;;;;;;10.57;4.10;;;;;;;3.00;65.97;99899.84;4979539;28;20065;-40
2022/04/11 04:58:23;;;;;;;14.60;4.70;;;;;;;2.98;66.31;99906.63;4981220;28;20100;-43
2022/04/11 05:00:49;;;;;;;13.25;5.28;;;;;;;2.98;67.34;99910.88;4980258;28;20109;-43
2022/04/11 05:03:16;;;;;;;12.35;5.35;;;;;;;2.99;68.07;99893.00;4981958;28;20065;-41
2022/04/11 05:05:42;;;;;;;10.95;4.55;;;;;;;3.00;68.81;99893.88;4979463;28;20074;-41
2022/04/11 05:08:09;;;;;;;13.25;5.03;;;;;;;3.02;67.64;99897.31;4977833;28;20062;-43
2022/04/11 05:10:36;;;;;;;16.98;5.90;;;;;;;2.98;68.78;99895.50;4980157;28;20042;-41
2022/04/11 05:13:02;;;;;;;11.23;5.50;;;;;;;2.97;68.12;99889.50;4982834;28;20055;-41
2022/04/11 05:15:29;;;;;;;12.23;4.45;;;;;;;2.94;69.50;99880.06;4982542;28;20051;-44
2022/04/11 05:17:56;;;;;;;15.55;6.22;;;;;;;2.98;68.06;99881.03;4973992;28;20043;-41
2022/04/11 05:20:22;;;;;;;9.75;3.90;;;;;;;3.00;68.53;99878.53;4982658;28;20614;-41
2022/04/11 05:22:49;;;;;;;13.25;5.53;;;;;;;3.00;68.80;99883.63;4980739;28;20058;-42
2022/04/11 05:25:16;;;;;;;15.35;5.82;;;;;;;3.00;68.53;99879.38;4977485;28;20054;-40
2022/04/11 05:27:42;;;;;;;12.10;5.20;;;;;;;3.04;68.88;99873.50;4981194;28;20137;-43
2022/04/11 05:30:09;;;;;;;14.20;5.30;;;;;;;3.04;68.21;99865.81;4982288;28;20075;-41
2022/04/11 05:32:36;;;;;;;11.60;5.13;;;;;;;3.07;68.86;99860.78;4980050;28;20140;-40
2022/04/11 05:35:03;;;;;;;9.90;5.00;;;;;;;3.11;68.03;99855.75;4969411;28;20051;-41
2022/04/11 05:37:30;;;;;;;11.57;5.20;;;;;;;3.10;68.10;99859.16;4973929;28;20070;-39
2022/04/11 05:39:57;;;;;;;12.45;4.88;;;;;;;3.08;68.88;99851.44;4980085;28;20132;-46
2022/04/11 05:42:23;;;;;;;11.77;4.95;;;;;;;3.07;69.05;99858.22;4990807;28;20384;-41
2022/04/11 05:44:50;;;;;;;13.27;5.45;;;;;;;3.06;69.83;99843.72;4982011;28;20039;-41
2022/04/11 05:47:16;;;;;;;12.90;5.35;;;;;;;3.07;70.20;99845.44;4975988;28;20038;-42
2022/04/11 05:49:43;;;;;;;12.60;5.72;;;;;;;3.08;69.11;99841.19;4981486;28;20070;-40
2022/04/11 05:52:14;;;;;;;11.52;4.72;;;;;;;3.12;69.82;99857.47;4981423;28;20608;-42
2022/04/11 05:54:41;;;;;;;11.82;5.05;;;;;;;3.10;69.92;99849.75;4979462;28;20627;-41
2022/04/11 05:57:07;;;;;;;14.50;5.00;;;;;;;3.16;70.68;99854.16;4984574;28;20674;-41
2022/04/11 05:59:34;;;;;;;14.10;5.53;;;;;;;3.18;69.67;99843.13;4980826;28;20047;-41
2022/04/11 06:02:00;;;;;;;9.82;4.65;;;;;;;3.25;70.40;99849.28;4977751;28;20050;-42
2022/04/11 06:04:27;;;;;;;15.27;5.13;;;;;;;3.27;69.92;99842.47;4977216;28;20049;-40
2022/04/11 06:06:54;;;;;;;17.05;5.97;;;;;;;3.36;69.83;99846.09;4981645;28;20046;-41
2022/04/11 06:09:20;;;;;;;17.60;5.68;;;;;;;3.43;69.78;99847.97;4982317;28;20050;-38
2022/04/11 06:11:47;;;;;;;12.95;6.05;;;;;;;3.46;69.88;99848.03;4984567;28;20042;-44
2022/04/11 06:14:14;;;;;;;11.77;5.53;;;;;;;3.58;70.85;99853.44;4989472;28;20046;-43
2022/04/11 06:16:40;;;;;;;14.73;5.60;;;;;;;3.65;71.10;99843.34;4985346;28;20101;-42
2022/04/11 06:19:07;;;;;;;12.25;5.18;;;;;;;3.73;70.38;99836.69;4981046;28;20049;-40
2022/04/11 06:21:34;;;;;;;12.73;5.07;;;;;;;3.81;71.11;99835.16;4984055;28;20054;-40
2022/04/11 06:24:00;;;;;;;13.85;4.85;;;;;;;3.93;71.36;99833.69;4983073;28;20457;-39
2022/04/11 06:26:27;;;;;;;10.07;4.32;;;;;;;4.02;70.09;99833.84;4984661;28;20138;-43
2022/04/11 06:28:53;;;;;;;12.00;4.75;;;;;;;4.11;70.19;99823.81;4976163;28;20046;-42
2022/04/11 06:31:20;;;;;;;13.95;5.55;;;;;;;4.23;69.78;99824.91;4978841;28;20501;-41
2022/04/11 06:33:47;;;;;;;13.43;4.85;;;;;;;4.35;70.50;99821.69;4976627;28;20038;-41
2022/04/11 06:36:16;;;;;;;9.98;5.07;;;;;;;4.43;70.07;99825.25;4971867;28;20055;-41
2022/04/11 06:38:43;;;;;;;9.90;4.65;;;;;;;4.56;69.85;99818.66;4976870;28;20713;-43
2022/04/11 06:41:10;;;;;;;10.13;4.53;;;;;;;4.68;69.01;99825.72;4969706;28;20058;-40
2022/04/11 06:43:37;;;;;;;7.95;3.85;;;;;;;4.70;69.95;99815.47;4980194;28;20042;-44
2022/04/11 06:46:04;;;;;;;11.43;5.10;;;;;;;4.73;69.68;99813.81;4978281;28;20050;-41
2022/04/11 06:48:30;;;;;;;12.52;5.75;;;;;;;4.83;69.21;99809.72;4982122;28;20069;-41
2022/04/11 06:50:57;;;;;;;10.75;4.32;;;;;;;4.86;69.20;99804.63;4978061;28;20046;-41
2022/04/11 06:53:24;;;;;;;13.65;4.65;;;;;;;4.93;68.51;99794.47;4983289;28;20046;-39
2022/04/11 06:55:51;;;;;;;9.70;4.30;;;;;;;4.97;69.09;99793.69;4981980;28;20051;-42
2022/04/11 06:58:21;;;;;;;12.30;4.55;;;;;;;5.05;69.20;99794.66;4979041;28;20050;-41
2022/04/11 07:00:48;;;;;;;14.48;5.32;;;;;;;5.09;69.33;99795.56;4975588;28;20058;-40
2022/04/11 07:03:17;;;;;;;10.93;4.55;;;;;;;5.23;68.56;99800.91;4977256;28;20042;-42
2022/04/11 07:05:44;;;;;;;9.40;4.07;;;;;;;5.27;68.06;99795.84;4979002;28;20085;-46
2022/04/11 07:08:10;;;;;;;11.32;4.68;;;;;;;5.29;68.32;99803.59;4980841;28;20533;-44
2022/04/11 07:10:40;;;;;;;8.70;3.97;;;;;;;5.38;68.40;99813.13;4981426;28;20038;-43
2022/04/11 07:13:07;;;;;;;8.70;4.28;;;;;;;5.49;68.03;99816.72;4983518;28;20050;-41
2022/04/11 07:15:34;;;;;;;10.32;5.30;;;;;;;5.69;67.15;99807.56;4982110;28;20083;-42
2022/04/11 07:18:01;;;;;;;11.15;4.00;;;;;;;5.84;68.10;99797.47;4977481;28;20050;-42
2022/04/11 07:20:27;;;;;;;15.32;5.93;;;;;;;5.97;65.74;99787.34;4986011;28;20046;-42
2022/04/11 07:22:54;;;;;;;11.02;4.90;;;;;;;6.05;65.69;99788.34;4984176;28;20056;-42
2022/04/11 07:25:23;;;;;;;7.82;4.45;;;;;;;6.09;65.99;99782.41;4987464;28;20442;-41
2022/04/11 07:27:50;;;;;;;7.75;3.38;;;;;;;6.10;65.48;99778.97;4991601;28;20050;-42
2022/04/11 07:30:17;;;;;;;9.18;4.78;;;;;;;6.16;66.16;99778.19;4990714;28;20068;-42
2022/04/11 07:32:44;;;;;;;7.50;3.75;;;;;;;6.27;66.11;99771.44;4993065;28;20100;-43
2022/04/11 07:35:10;;;;;;;9.68;4.75;;;;;;;6.37;66.17;99767.25;4988737;28;20062;-42
2022/04/11 07:37:37;;;;;;;9.27;4.50;;;;;;;6.46;64.65;99756.19;4987587;28;20105;-45
2022/04/11 07:40:04;;;;;;;10.55;4.95;;;;;;;6.59;64.10;99746.88;4993230;28;20101;-42
2022/04/11 07:42:31;;;;;;;10.32;3.65;;;;;;;6.71;65.91;99750.38;4991213;28;20095;-48
2022/04/11 07:44:58;;;;;;;10.25;5.10;;;;;;;6.85;63.84;99747.94;4986463;28;20046;-44
2022/04/11 07:47:24;;;;;;;7.97;4.55;;;;;;;7.07;64.81;99748.94;4977773;28;20050;-40
2022/04/11 07:49:51;;;;;;;8.48;4.45;;;;;;;7.27;63.06;99750.78;4981601;28;20038;-43
2022/04/11 07:52:18;;;;;;;8.50;3.55;;;;;;;7.40;62.72;99757.72;4977169;28;20058;-41
2022/04/11 07:54:44;;;;;;;11.35;4.38;;;;;;;7.42;61.90;99750.00;4979896;28;20571;-42
2022/04/11 07:57:11;;;;;;;10.98;4.63;;;;;;;7.37;63.49;99757.72;4980498;28;20050;-44
2022/04/11 07:59:37;;;;;;;8.20;4.10;;;;;;;7.36;60.86;99763.72;4981057;28;20470;-39
2022/04/11 08:02:04;;;;;;;9.18;4.80;;;;;;;7.36;61.49;99761.13;4977218;28;20499;-41
2022/04/11 08:04:31;;;;;;;8.48;3.80;;;;;;;7.37;62.73;99778.34;4980772;28;20057;-41
2022/04/11 08:06:59;;;;;;;7.57;3.42;;;;;;;7.39;63.11;99753.44;4980721;28;20061;-43
2022/04/11 08:09:26;;;;;;;8.60;4.80;;;;;;;7.46;63.42;99750.03;4981606;28;20137;-46
2022/04/11 08:11:52;;;;;;;6.65;4.03;;;;;;;7.50;61.65;99753.47;4983791;28;20050;-41
2022/04/11 08:14:19;;;;;;;7.63;4.18;;;;;;;7.54;61.96;99741.50;4984190;28;20690;-44
2022/04/11 08:16:45;;;;;;;9.18;5.38;;;;;;;7.65;62.49;99737.25;4982964;28;20058;-43
2022/04/11 08:19:12;;;;;;;13.02;4.10;;;;;;;7.84;62.69;99734.75;4985681;28;20054;-43
2022/04/11 08:21:39;;;;;;;9.80;5.05;;;;;;;7.93;61.37;99732.19;4988465;28;20042;-46
2022/04/11 08:24:06;;;;;;;9.43;4.35;;;;;;;7.94;61.86;99733.88;4987929;28;20054;-41
2022/04/11 08:26:32;;;;;;;8.70;4.03;;;;;;;7.94;61.51;99744.22;4987613;28;20441;-44
2022/04/11 08:28:59;;;;;;;11.65;4.65;;;;;;;7.93;61.82;99745.06;4988503;28;20054;-40
2022/04/11 08:31:26;;;;;;;16.25;4.50;;;;;;;7.98;62.69;99751.09;4987462;28;20050;-44
2022/04/11 08:33:52;;;;;;;10.73;4.63;;;;;;;8.06;61.96;99750.25;4986129;28;20046;-44
2022/04/11 08:36:19;;;;;;;10.38;4.70;;;;;;;8.26;60.56;99749.44;4980334;28;20050;-40
2022/04/11 08:38:46;;;;;;;7.80;4.13;;;;;;;8.41;61.95;99749.47;4979325;28;20058;-41
2022/04/11 08:41:17;;;;;;;11.30;4.10;;;;;;;8.51;60.75;99742.59;4987214;28;20049;-43
2022/04/11 08:43:44;;;;;;;9.27;4.38;;;;;;;8.62;59.74;99747.81;4980600;28;20054;-44
2022/04/11 08:46:14;;;;;;;7.47;4.05;;;;;;;8.75;60.18;99753.84;4987057;28;20056;-45
2022/04/11 08:48:42;;;;;;;7.55;3.50;;;;;;;9.05;59.83;99751.25;4980781;28;20061;-43
2022/04/11 08:51:11;;;;;;;10.77;4.47;;;;;;;9.38;57.71;99749.44;4981560;28;20046;-45
2022/04/11 08:53:38;;;;;;;9.18;4.70;;;;;;;9.60;57.94;99744.22;4989489;28;20054;-44
2022/04/11 08:56:04;;;;;;;9.32;4.07;;;;;;;9.81;56.20;99768.25;4975705;28;20109;-46
2022/04/11 08:58:31;;;;;;;9.60;4.10;;;;;;;10.09;57.75;99752.59;4981564;28;20046;-45
2022/04/11 09:00:58;;;;;;;11.05;4.43;;;;;;;10.36;55.98;99751.59;4977473;28;20058;-41
2022/04/11 09:03:25;;;;;;;9.32;4.45;;;;;;;10.44;55.72;99754.16;4979004;28;20137;-40
2022/04/11 09:06:09;;;;;;;9.50;4.45;;;;;;;10.36;54.25;99746.41;4979969;28;20109;-43
2022/04/11 09:08:55;;;;;;;12.13;5.05;;;;;;;10.48;56.55;99740.34;5008096;28;20050;-42
2022/04/11 09:11:38;;;;;;;10.27;4.30;;;;;;;10.69;55.77;99728.06;5007257;28;20071;-41
2022/04/11 09:14:07;;;;;;;7.40;3.90;;;;;;;10.63;54.14;99735.88;4979234;28;20065;-43
2022/04/11 09:16:51;;;;;;;9.88;4.18;;;;;;;10.46;54.23;99713.56;4980866;28;20061;-43
2022/04/11 09:19:20;;;;;;;7.50;3.65;;;;;;;10.39;54.67;99704.97;4979315;28;20049;-43
2022/04/11 09:22:07;;;;;;;8.18;4.18;;;;;;;10.46;55.67;99704.94;4982791;28;20042;-45
2022/04/11 09:24:35;;;;;;;6.55;3.53;;;;;;;10.52;53.73;99710.94;4985616;28;20125;-45
2022/04/11 09:27:04;;;;;;;9.55;4.55;;;;;;;10.83;53.72;99694.28;4982120;28;20081;-45
2022/04/11 09:29:33;;;;;;;7.30;3.80;;;;;;;11.25;51.45;99683.47;4990135;28;20046;-45
2022/04/11 09:32:04;;;;;;;7.53;3.55;;;;;;;11.47;53.89;99688.41;4981613;28;20046;-43
2022/04/11 09:34:31;;;;;;;6.00;3.55;;;;;;;11.76;51.61;99676.78;4979945;28;20053;-41
2022/04/11 09:37:01;;;;;;;6.82;3.50;;;;;;;11.95;50.49;99676.53;4977895;28;20047;-45
2022/04/11 09:39:32;;;;;;;7.88;3.65;;;;;;;11.90;50.11;99668.84;5011477;28;20479;-45
2022/04/11 09:42:03;;;;;;;8.07;3.03;;;;;;;11.46;48.52;99646.94;4981225;28;20073;-43
2022/04/11 09:44:35;;;;;;;6.88;3.33;;;;;;;11.21;49.68;99653.28;4983492;28;20137;-41
2022/04/11 09:47:20;;;;;;;8.20;2.92;;;;;;;11.00;49.93;99647.47;4984239;28;20642;-44
2022/04/11 09:49:47;;;;;;;7.32;3.50;;;;;;;11.05;50.44;99640.47;4985694;28;20050;-43
2022/04/11 09:52:31;;;;;;;6.47;3.88;;;;;;;11.17;50.19;99641.22;4985053;28;20069;-41
2022/04/11 09:54:58;;;;;;;7.28;3.50;;;;;;;11.23;51.27;99651.53;4980593;28;20046;-50
2022/04/11 09:57:29;;;;;;;10.00;3.40;;;;;;;11.20;50.86;99664.53;4981320;28;20042;-46
2022/04/11 10:00:00;;;;;;;5.82;2.45;;;;;;;11.16;49.13;99660.25;4982709;28;20057;-44
2022/04/11 10:02:34;;;;;;;3.92;2.38;;;;;;;11.12;48.78;99653.38;4987798;28;20109;-42
2022/04/11 10:05:02;;;;;;;4.38;2.38;;;;;;;11.08;49.13;99649.13;4980536;28;20058;-47
2022/04/11 10:07:29;;;;;;;8.45;3.75;;;;;;;11.14;48.84;99646.44;4984348;28;20055;-46
2022/04/11 10:09:56;;;;;;;5.82;2.58;;;;;;;11.41;49.76;99646.97;4983912;28;20051;-42
2022/04/11 10:12:23;;;;;;;5.30;3.05;;;;;;;11.64;49.01;99638.03;4984373;28;20096;-42
2022/04/11 10:14:52;;;;;;;5.20;2.60;;;;;;;11.79;48.33;99644.78;4982511;28;20058;-44
2022/04/11 10:17:18;;;;;;;5.43;3.25;;;;;;;11.96;47.74;99631.56;4985321;28;20117;-45
2022/04/11 10:19:48;;;;;;;5.78;2.88;;;;;;;11.89;46.98;99615.19;4981795;28;20120;-42
2022/04/11 10:22:24;;;;;;;6.53;2.72;;;;;;;11.91;48.56;99629.00;4978266;28;20709;-43
2022/04/11 10:25:07;;;;;;;;;;;;;;;11.92;49.01;99614.31;4986107;28;20050;-45
2022/04/11 10:27:36;;;;;;;3.50;2.30;;;;;;;11.88;49.14;99617.81;4977245;28;19926;-49
2022/04/11 10:30:26;;;;;;;8.38;2.83;;;;;;;11.91;48.75;99597.00;4991630;28;20054;-42
2022/04/11 10:32:55;;;;;;;5.80;2.60;;;;;;;11.93;48.65;99588.31;4979485;28;20430;-43
2022/04/11 10:35:32;;;;;;;5.68;2.83;;;;;;;11.94;49.01;99571.00;4979734;28;20046;-42
2022/04/11 10:40:37;;;;;;;3.72;2.17;;;;;;;11.98;48.90;99577.00;5076125;27;20437;-43
2022/04/11 10:45:42;;;;;;;6.57;3.17;;;;;;;11.98;47.24;99580.47;5038023;28;20392;-46
2022/04/11 10:48:11;;;;;;;5.80;2.42;;;;;;;12.01;47.50;99572.63;5001034;28;20145;-46
2022/04/11 10:50:39;;;;;;;4.93;2.60;;;;;;;11.99;47.40;99574.38;4998707;28;20145;-44
2022/04/11 10:58:50;;;;;;;4.88;2.03;;;;;;;12.40;46.39;99553.81;5009397;28;20771;-43
2022/04/11 11:04:22;;;;;;;3.72;2.08;;;;;;;12.67;43.83;99561.13;4998141;28;20412;-48
2022/04/11 11:07:30;;;;;;;4.20;2.17;;;;;;;12.70;45.27;99556.72;4984407;28;20054;-46
2022/04/11 11:15:27;;;;;;;3.67;2.08;;;;;;;12.63;42.03;99554.28;5049430;27;21990;-45
2022/04/11 11:17:56;;;;;;;2.65;1.63;;;;;;;12.57;43.10;99574.28;5016911;28;20055;-47
2022/04/11 11:20:23;;;;;;;8.73;1.63;;;;;;;12.54;43.75;99555.31;5017079;28;20049;-43
2022/04/11 11:25:50;;;;;;;3.20;1.38;;;;;;;12.41;43.08;99559.88;5023387;27;20414;-42
2022/04/11 11:28:16;;;;;;;3.03;1.52;;;;;;;12.58;42.51;99551.75;5017765;28;20041;-47
2022/04/11 11:30:44;;;;;;;7.07;1.20;;;;;;;12.81;45.39;99553.94;5015403;28;20050;-43
2022/04/11 11:33:14;;;;;;;6.70;1.25;;;;;;;13.04;42.23;99567.34;5017431;28;20045;-44
2022/04/11 11:35:46;;;;;;;3.08;1.38;;;;;;;13.23;41.05;99516.66;5014355;28;20045;-44
2022/04/11 11:38:13;;;;;;;3.08;1.52;;;;;;;13.42;40.90;99512.78;5015601;28;20105;-44
2022/04/11 11:40:52;;;;;;;5.50;1.70;;;;;;;13.56;38.88;99526.34;5014256;28;20057;-45
2022/04/11 11:43:20;;;;;;;2.28;1.60;;;;;;;13.66;40.05;99526.13;5017565;28;20050;-45
2022/04/11 11:45:48;;;;;;;3.35;1.58;;;;;;;13.73;41.01;99506.88;5020595;28;20103;-45
2022/04/11 11:48:25;;;;;;;3.83;1.85;;;;;;;13.85;42.36;99496.16;5020761;28;20046;-43
2022/04/11 11:50:55;;;;;;;3.30;1.85;;;;;;;13.76;39.94;99485.97;5022789;28;20100;-44
2022/04/11 11:53:23;;;;;;;4.45;1.58;;;;;;;13.55;38.95;99477.81;5016449;28;20129;-43
2022/04/11 11:58:43;;;;;;;1.33;0.95;;;;;;;13.42;39.39;99482.41;5019262;27;20399;-43
2022/04/11 12:01:12;;;;;;;1.83;1.50;;;;;;;13.52;38.74;99483.09;4998332;28;20698;-46
2022/04/11 12:06:31;;;;;;;2.55;1.73;;;;;;;13.56;37.33;99495.13;4986085;28;20054;-43
2022/04/11 12:09:01;;;;;;;2.33;0.93;;;;;;;13.46;37.92;99478.00;4994855;28;20084;-42
2022/04/11 12:11:29;;;;;;;2.83;1.17;;;;;;;13.51;37.93;99465.75;4991310;28;20042;-42